Time;durP1;ratioP1;P1;durP2;ratioP2;P2;SDS_P1;SDS_P2;PMS_P1;PMS_P2;Temp;Humidity;BMP_temperature;BMP_pressure;BME280_temperature;BME280_humidity;BME280_pressure;Samples;Min_cycle;Max_cycle;Signal;HPM_P1;HPM_P2
2022/05/07 00:00:54;;;;;;;1.15;1.02;;;;;;;;;;5100588;28;20212;-54
2022/05/07 00:03:22;;;;;;;1.38;1.27;;;;;;;;;;5100497;28;20199;-54
2022/05/07 00:05:51;;;;;;;1.00;1.00;;;;;;;;;;5104235;28;20204;-54
2022/05/07 00:08:19;;;;;;;1.50;1.00;;;;;;;;;;5103451;28;20198;-54
2022/05/07 00:10:46;;;;;;;1.13;1.00;;;;;;;;;;5100991;28;20514;-54
2022/05/07 00:13:14;;;;;;;0.90;0.90;;;;;;;;;;5101323;28;20203;-54
2022/05/07 00:18:01;;;;;;;1.67;1.10;;;;;;;;;;5102099;28;20203;-54
2022/05/07 00:18:29;;;;;;;1.08;1.00;;;;;;;;;;5100896;28;20300;-54
2022/05/07 00:20:58;;;;;;;1.30;1.10;;;;;;;;;;5101126;28;20674;-54
2022/05/07 00:23:25;;;;;;;1.00;1.00;;;;;;;;;;5101104;28;20211;-54
2022/05/07 00:25:52;;;;;;;1.10;1.10;;;;;;;;;;5101117;28;20204;-54
2022/05/07 00:28:20;;;;;;;1.23;1.13;;;;;;;;;;5101004;28;20293;-54
2022/05/07 00:30:48;;;;;;;1.17;1.08;;;;;;;;;;5101948;28;20215;-54
2022/05/07 00:33:15;;;;;;;1.00;1.00;;;;;;;;;;5100998;28;20199;-54
2022/05/07 00:35:42;;;;;;;1.20;1.13;;;;;;;;;;5101111;28;20207;-54
2022/05/07 00:38:11;;;;;;;1.10;1.00;;;;;;;;;;5100500;28;20231;-54
2022/05/07 00:40:39;;;;;;;0.98;0.98;;;;;;;;;;5100549;28;20488;-54
2022/05/07 00:43:06;;;;;;;1.00;1.00;;;;;;;;;;5116288;28;20250;-53
2022/05/07 00:45:34;;;;;;;1.20;1.10;;;;;;;;;;5121304;28;20207;-54
2022/05/07 00:48:01;;;;;;;1.00;1.00;;;;;;;;;;5120692;28;20202;-54
2022/05/07 00:53:15;;;;;;;1.08;1.08;;;;;;;;;;5118046;28;20190;-53
2022/05/07 00:55:43;;;;;;;0.90;0.90;;;;;;;;;;5107427;28;20570;-54
2022/05/07 00:58:10;;;;;;;1.40;1.20;;;;;;;;;;5120736;28;20218;-54
2022/05/07 01:00:38;;;;;;;0.90;0.90;;;;;;;;;;5121065;28;20203;-54
2022/05/07 01:03:05;;;;;;;1.17;1.10;;;;;;;;;;5120913;28;20214;-54
2022/05/07 01:05:33;;;;;;;1.00;1.00;;;;;;;;;;5121409;28;20203;-53
2022/05/07 01:08:01;;;;;;;1.20;1.10;;;;;;;;;;5120706;28;20206;-53
2022/05/07 01:10:30;;;;;;;1.10;1.10;;;;;;;;;;5119751;28;20306;-54
2022/05/07 01:12:57;;;;;;;1.20;1.10;;;;;;;;;;5120611;28;20511;-53
2022/05/07 01:15:26;;;;;;;1.10;1.00;;;;;;;;;;5121271;28;20203;-54
2022/05/07 01:17:53;;;;;;;0.98;0.88;;;;;;;;;;5120165;28;20222;-53
2022/05/07 01:20:21;;;;;;;1.35;0.98;;;;;;;;;;5120997;28;20202;-53
2022/05/07 01:22:50;;;;;;;1.25;1.15;;;;;;;;;;5120575;28;20210;-53
2022/05/07 01:25:17;;;;;;;1.20;1.10;;;;;;;;;;5120348;28;20202;-54
2022/05/07 01:27:45;;;;;;;1.05;1.05;;;;;;;;;;5119844;28;20187;-54
2022/05/07 01:30:13;;;;;;;1.00;1.00;;;;;;;;;;5120007;28;20489;-53
2022/05/07 01:32:40;;;;;;;1.10;1.10;;;;;;;;;;5119946;28;20195;-54
2022/05/07 01:35:08;;;;;;;1.20;1.00;;;;;;;;;;5120027;28;20203;-53
2022/05/07 01:37:35;;;;;;;1.20;1.20;;;;;;;;;;5119519;28;20223;-53
2022/05/07 01:40:04;;;;;;;1.00;1.00;;;;;;;;;;5120062;28;20268;-53
2022/05/07 01:42:31;;;;;;;1.10;1.10;;;;;;;;;;5119747;28;20644;-54
2022/05/07 01:44:59;;;;;;;1.13;1.10;;;;;;;;;;5119911;28;20203;-53
2022/05/07 01:50:11;;;;;;;1.00;1.00;;;;;;;;;;5119622;28;20194;-53
2022/05/07 01:52:39;;;;;;;1.10;1.10;;;;;;;;;;5119403;28;20203;-53
2022/05/07 01:55:08;;;;;;;1.20;1.10;;;;;;;;;;5120083;28;20202;-54
2022/05/07 01:57:36;;;;;;;1.25;1.23;;;;;;;;;;5120159;28;20602;-54
2022/05/07 02:00:03;;;;;;;0.90;0.90;;;;;;;;;;5119381;28;20202;-53
2022/05/07 02:02:31;;;;;;;1.13;1.02;;;;;;;;;;5120134;28;20268;-53
2022/05/07 02:04:58;;;;;;;0.90;0.90;;;;;;;;;;5119698;28;20246;-53
2022/05/07 02:07:26;;;;;;;1.10;1.10;;;;;;;;;;5119869;28;20206;-53
2022/05/07 02:09:53;;;;;;;1.00;1.00;;;;;;;;;;5119678;28;20207;-53
2022/05/07 02:12:22;;;;;;;0.90;0.90;;;;;;;;;;5119675;28;20220;-54
2022/05/07 02:14:49;;;;;;;1.10;1.10;;;;;;;;;;5119706;28;20574;-54
2022/05/07 02:17:17;;;;;;;1.48;1.05;;;;;;;;;;5118966;28;20195;-53
2022/05/07 02:19:44;;;;;;;1.20;1.13;;;;;;;;;;5119556;28;20239;-54
2022/05/07 02:22:11;;;;;;;1.10;1.08;;;;;;;;;;5119157;28;20198;-54
2022/05/07 02:24:39;;;;;;;1.02;1.00;;;;;;;;;;5119046;28;20575;-54
2022/05/07 02:27:06;;;;;;;1.20;1.10;;;;;;;;;;5118782;28;20195;-54
2022/05/07 02:29:35;;;;;;;1.00;1.00;;;;;;;;;;5118878;28;20210;-54
2022/05/07 02:32:06;;;;;;;1.00;1.00;;;;;;;;;;5119157;28;20202;-53
2022/05/07 02:34:33;;;;;;;0.98;0.98;;;;;;;;;;5118892;28;20301;-53
2022/05/07 02:37:01;;;;;;;1.02;1.00;;;;;;;;;;5119166;28;20206;-54
2022/05/07 02:39:28;;;;;;;1.10;1.00;;;;;;;;;;5119243;28;20592;-54
2022/05/07 02:44:42;;;;;;;1.10;1.00;;;;;;;;;;5098674;28;20498;-54
2022/05/07 02:47:09;;;;;;;1.00;1.00;;;;;;;;;;5098079;28;20195;-54
2022/05/07 02:49:37;;;;;;;1.02;1.02;;;;;;;;;;5098515;28;20578;-53
2022/05/07 02:52:04;;;;;;;1.00;1.00;;;;;;;;;;5099869;28;20393;-54
2022/05/07 02:54:32;;;;;;;0.93;0.93;;;;;;;;;;5099236;28;20214;-54
2022/05/07 02:56:59;;;;;;;1.00;1.00;;;;;;;;;;5098541;28;20211;-53
2022/05/07 02:59:27;;;;;;;0.90;0.90;;;;;;;;;;5098711;28;20238;-53
2022/05/07 03:01:55;;;;;;;1.20;1.10;;;;;;;;;;5098691;28;20277;-53
2022/05/07 03:04:23;;;;;;;1.30;1.20;;;;;;;;;;5098113;28;20242;-53
2022/05/07 03:06:51;;;;;;;1.00;1.00;;;;;;;;;;5098083;28;20211;-53
2022/05/07 03:09:18;;;;;;;1.13;1.13;;;;;;;;;;5098004;28;20203;-53
2022/05/07 03:11:45;;;;;;;1.10;1.00;;;;;;;;;;5098355;28;20203;-54
2022/05/07 03:14:13;;;;;;;0.93;0.93;;;;;;;;;;5097658;28;20204;-54
2022/05/07 03:16:41;;;;;;;0.98;0.93;;;;;;;;;;5099507;28;20280;-53
2022/05/07 03:19:09;;;;;;;1.20;1.10;;;;;;;;;;5097653;28;20479;-53
2022/05/07 03:21:37;;;;;;;0.90;0.90;;;;;;;;;;5098602;28;20208;-53
2022/05/07 03:24:05;;;;;;;0.90;0.90;;;;;;;;;;5098578;28;20290;-53
2022/05/07 03:26:32;;;;;;;1.25;1.15;;;;;;;;;;5098650;28;20203;-53
2022/05/07 03:28:59;;;;;;;1.00;1.00;;;;;;;;;;5097475;28;20191;-53
2022/05/07 03:31:27;;;;;;;1.00;1.00;;;;;;;;;;5098425;28;20211;-53
2022/05/07 03:33:54;;;;;;;0.80;0.80;;;;;;;;;;5098134;28;20294;-53
2022/05/07 03:36:23;;;;;;;0.85;0.85;;;;;;;;;;5098403;28;20298;-53
2022/05/07 03:38:51;;;;;;;0.95;0.95;;;;;;;;;;5097111;28;20657;-54
2022/05/07 03:41:19;;;;;;;1.40;1.00;;;;;;;;;;5098746;28;20203;-54
2022/05/07 03:43:46;;;;;;;1.05;1.00;;;;;;;;;;5117537;28;20199;-53
2022/05/07 03:46:14;;;;;;;1.00;1.00;;;;;;;;;;5118152;28;20590;-54
2022/05/07 03:48:42;;;;;;;1.00;0.98;;;;;;;;;;5118610;28;20195;-53
2022/05/07 03:51:09;;;;;;;1.52;1.10;;;;;;;;;;5118258;28;20214;-53
2022/05/07 03:53:37;;;;;;;0.95;0.95;;;;;;;;;;5119105;28;20203;-54
2022/05/07 03:56:05;;;;;;;0.90;0.90;;;;;;;;;;5118870;28;20222;-54
2022/05/07 03:58:33;;;;;;;0.90;0.90;;;;;;;;;;5118225;28;20309;-53
2022/05/07 04:01:01;;;;;;;1.15;1.05;;;;;;;;;;5118311;28;20203;-54
2022/05/07 04:03:28;;;;;;;0.90;0.90;;;;;;;;;;5118179;28;20210;-54
2022/05/07 04:05:58;;;;;;;1.10;1.10;;;;;;;;;;5118219;28;20203;-54
2022/05/07 04:08:25;;;;;;;1.10;1.10;;;;;;;;;;5118148;28;20196;-53
2022/05/07 04:10:54;;;;;;;1.15;1.05;;;;;;;;;;5118266;28;20238;-53
2022/05/07 04:13:22;;;;;;;1.00;1.00;;;;;;;;;;5119041;28;20202;-54
2022/05/07 04:15:49;;;;;;;1.00;1.00;;;;;;;;;;5117754;28;20203;-54
2022/05/07 04:18:17;;;;;;;1.00;1.00;;;;;;;;;;5120939;28;20199;-54
2022/05/07 04:20:44;;;;;;;1.13;1.13;;;;;;;;;;5121813;28;20230;-53
2022/05/07 04:23:12;;;;;;;0.90;0.90;;;;;;;;;;5121007;28;20528;-54
2022/05/07 04:25:40;;;;;;;1.00;1.00;;;;;;;;;;5120670;28;20491;-53
2022/05/07 04:28:09;;;;;;;1.30;1.20;;;;;;;;;;5120901;28;20210;-54
2022/05/07 04:30:36;;;;;;;0.80;0.80;;;;;;;;;;5121521;28;20202;-53
2022/05/07 04:33:04;;;;;;;1.15;1.10;;;;;;;;;;5121813;28;20210;-53
2022/05/07 04:35:31;;;;;;;0.90;0.90;;;;;;;;;;5121963;28;20297;-53
2022/05/07 04:37:58;;;;;;;0.90;0.90;;;;;;;;;;5120706;28;20209;-53
2022/05/07 04:40:26;;;;;;;1.00;1.00;;;;;;;;;;5121192;28;20233;-53
2022/05/07 04:42:53;;;;;;;1.00;1.00;;;;;;;;;;5120624;28;20239;-54
2022/05/07 04:45:22;;;;;;;1.00;1.00;;;;;;;;;;5121107;28;20203;-54
2022/05/07 04:47:49;;;;;;;1.02;1.00;;;;;;;;;;5120375;28;20203;-53
2022/05/07 04:50:17;;;;;;;0.95;0.95;;;;;;;;;;5121004;28;20199;-53
2022/05/07 04:52:44;;;;;;;0.93;0.93;;;;;;;;;;5121880;28;20559;-53
2022/05/07 04:55:12;;;;;;;1.20;1.20;;;;;;;;;;5120789;28;20203;-54
2022/05/07 04:57:40;;;;;;;1.30;1.20;;;;;;;;;;5119735;28;20206;-54
2022/05/07 05:00:08;;;;;;;0.90;0.90;;;;;;;;;;5120432;28;20295;-54
2022/05/07 05:02:37;;;;;;;0.90;0.90;;;;;;;;;;5121000;28;20203;-53
2022/05/07 05:05:05;;;;;;;0.85;0.85;;;;;;;;;;5121075;28;20203;-53
2022/05/07 05:07:32;;;;;;;1.02;1.02;;;;;;;;;;5120794;28;20205;-53
2022/05/07 05:09:59;;;;;;;0.90;0.90;;;;;;;;;;5120482;28;20195;-53
2022/05/07 05:12:27;;;;;;;1.10;1.08;;;;;;;;;;5120321;28;20222;-54
2022/05/07 05:15:04;;;;;;;1.00;1.00;;;;;;;;;;5121480;28;20198;-54
2022/05/07 05:17:33;;;;;;;1.00;1.00;;;;;;;;;;5120824;28;20290;-54
2022/05/07 05:20:01;;;;;;;0.93;0.93;;;;;;;;;;5120022;28;20730;-54
2022/05/07 05:22:29;;;;;;;1.00;1.00;;;;;;;;;;5121378;28;20213;-54
2022/05/07 05:24:56;;;;;;;0.80;0.80;;;;;;;;;;5120037;28;20229;-54
2022/05/07 05:27:24;;;;;;;1.23;1.15;;;;;;;;;;5119566;28;20486;-54
2022/05/07 05:29:52;;;;;;;1.00;1.00;;;;;;;;;;5119968;28;20230;-54
2022/05/07 05:32:19;;;;;;;1.00;1.00;;;;;;;;;;5120333;28;20214;-53
2022/05/07 05:34:47;;;;;;;1.17;1.08;;;;;;;;;;5119993;28;20655;-54
2022/05/07 05:37:17;;;;;;;1.00;1.00;;;;;;;;;;5119971;28;20263;-54
2022/05/07 05:39:45;;;;;;;0.90;0.90;;;;;;;;;;5119551;28;20223;-54
2022/05/07 05:42:12;;;;;;;0.90;0.90;;;;;;;;;;5119000;28;20584;-54
2022/05/07 05:44:41;;;;;;;0.95;0.95;;;;;;;;;;5119316;28;20203;-54
2022/05/07 05:47:08;;;;;;;1.20;1.10;;;;;;;;;;5119245;28;20214;-54
2022/05/07 05:49:36;;;;;;;0.90;0.90;;;;;;;;;;5119424;28;20191;-54
2022/05/07 05:52:04;;;;;;;1.15;1.15;;;;;;;;;;5120138;28;20210;-54
2022/05/07 05:54:33;;;;;;;1.23;1.13;;;;;;;;;;5120277;28;20202;-54
2022/05/07 05:57:00;;;;;;;1.13;1.10;;;;;;;;;;5119473;28;20233;-54
2022/05/07 05:59:28;;;;;;;1.02;1.02;;;;;;;;;;5119175;28;20257;-54
2022/05/07 06:01:55;;;;;;;1.15;1.15;;;;;;;;;;5118861;28;20207;-54
2022/05/07 06:04:23;;;;;;;1.25;1.15;;;;;;;;;;5119110;28;20222;-54
2022/05/07 06:06:50;;;;;;;1.10;1.00;;;;;;;;;;5120154;28;20587;-54
2022/05/07 06:09:21;;;;;;;0.88;0.88;;;;;;;;;;5118340;28;20191;-54
2022/05/07 06:11:51;;;;;;;1.20;1.10;;;;;;;;;;5119395;28;20301;-55
2022/05/07 06:14:18;;;;;;;1.13;1.10;;;;;;;;;;5119122;28;20289;-54
2022/05/07 06:16:46;;;;;;;1.10;1.00;;;;;;;;;;5119492;28;20203;-54
2022/05/07 06:19:13;;;;;;;1.00;1.00;;;;;;;;;;5115884;28;20219;-54
2022/05/07 06:21:41;;;;;;;0.93;0.93;;;;;;;;;;5117621;28;20195;-54
2022/05/07 06:29:36;;;;;;;1.00;1.00;;;;;;;;;;5116925;28;20615;-54
2022/05/07 06:32:03;;;;;;;1.00;1.00;;;;;;;;;;5118731;28;20210;-54
2022/05/07 06:34:31;;;;;;;0.98;0.98;;;;;;;;;;5117733;28;20203;-54
2022/05/07 06:36:58;;;;;;;0.98;0.98;;;;;;;;;;5118121;28;20782;-54
2022/05/07 06:39:26;;;;;;;1.10;1.10;;;;;;;;;;5110187;28;20610;-54
2022/05/07 06:41:54;;;;;;;1.27;1.10;;;;;;;;;;5107911;28;20234;-55
2022/05/07 06:44:22;;;;;;;1.20;1.10;;;;;;;;;;5119074;28;20222;-54
2022/05/07 06:46:50;;;;;;;0.88;0.88;;;;;;;;;;5117932;28;20358;-54
2022/05/07 06:49:18;;;;;;;1.15;1.05;;;;;;;;;;5118490;28;20594;-55
2022/05/07 06:51:46;;;;;;;0.98;0.98;;;;;;;;;;5117969;28;20246;-54
2022/05/07 06:54:13;;;;;;;1.65;1.10;;;;;;;;;;5117981;28;20217;-54
2022/05/07 06:56:40;;;;;;;1.00;1.00;;;;;;;;;;5117011;28;20207;-54
2022/05/07 06:59:09;;;;;;;1.20;1.20;;;;;;;;;;5116722;28;20582;-54
2022/05/07 07:01:37;;;;;;;1.65;1.27;;;;;;;;;;5117259;28;20298;-54
2022/05/07 07:04:04;;;;;;;1.10;1.00;;;;;;;;;;5117383;28;20207;-54
2022/05/07 07:06:32;;;;;;;1.48;1.13;;;;;;;;;;5116620;28;20209;-54
2022/05/07 07:08:59;;;;;;;1.60;1.02;;;;;;;;;;5116367;28;20225;-55
2022/05/07 07:11:26;;;;;;;1.00;1.00;;;;;;;;;;5116646;28;20202;-55
2022/05/07 07:13:54;;;;;;;1.65;1.20;;;;;;;;;;5117420;28;20203;-54
2022/05/07 07:16:23;;;;;;;1.00;1.00;;;;;;;;;;5116701;28;20260;-54
2022/05/07 07:18:50;;;;;;;1.70;1.20;;;;;;;;;;5116768;28;20199;-54
2022/05/07 07:21:17;;;;;;;1.10;1.00;;;;;;;;;;5117368;28;20481;-55
2022/05/07 07:23:45;;;;;;;1.20;1.10;;;;;;;;;;5117545;28;20202;-54
2022/05/07 07:26:12;;;;;;;1.30;1.20;;;;;;;;;;5116701;28;20203;-55
2022/05/07 07:28:40;;;;;;;1.02;1.00;;;;;;;;;;5116072;28;20199;-54
2022/05/07 07:31:08;;;;;;;1.48;1.30;;;;;;;;;;5116970;28;20202;-55
2022/05/07 07:33:37;;;;;;;0.93;0.90;;;;;;;;;;5102801;28;20207;-54
2022/05/07 07:36:05;;;;;;;1.17;1.00;;;;;;;;;;5096130;28;20214;-54
2022/05/07 07:38:32;;;;;;;1.20;1.00;;;;;;;;;;5104524;28;20206;-54
2022/05/07 07:41:00;;;;;;;1.30;1.20;;;;;;;;;;5116557;28;20350;-54
2022/05/07 07:43:27;;;;;;;1.20;1.10;;;;;;;;;;5115873;28;20254;-55
2022/05/07 07:48:41;;;;;;;1.20;1.10;;;;;;;;;;5116854;28;20248;-54
2022/05/07 07:51:08;;;;;;;1.13;1.02;;;;;;;;;;5117642;28;20273;-54
2022/05/07 07:53:36;;;;;;;1.10;1.00;;;;;;;;;;5120594;28;20634;-55
2022/05/07 07:56:04;;;;;;;1.98;1.17;;;;;;;;;;5119689;28;20248;-54
2022/05/07 07:58:32;;;;;;;1.85;1.10;;;;;;;;;;5120240;28;20210;-55
2022/05/07 08:01:02;;;;;;;2.05;1.10;;;;;;;;;;5119592;28;20246;-54
2022/05/07 08:03:29;;;;;;;2.35;1.20;;;;;;;;;;5120446;28;20210;-54
2022/05/07 08:05:59;;;;;;;1.15;1.10;;;;;;;;;;5120310;28;20585;-55
2022/05/07 08:13:54;;;;;;;1.80;1.25;;;;;;;;;;5104449;28;20188;-55
2022/05/07 08:16:22;;;;;;;1.70;1.20;;;;;;;;;;5118222;28;20199;-54
2022/05/07 08:18:50;;;;;;;1.25;1.15;;;;;;;;;;5118629;28;20198;-55
2022/05/07 08:21:19;;;;;;;1.45;1.05;;;;;;;;;;5118583;28;20245;-54
2022/05/07 08:23:46;;;;;;;1.52;1.00;;;;;;;;;;5119025;28;20202;-54
2022/05/07 08:26:14;;;;;;;1.30;1.20;;;;;;;;;;5118553;28;20199;-54
2022/05/07 08:28:41;;;;;;;1.48;1.30;;;;;;;;;;5118624;28;20491;-54
2022/05/07 08:31:10;;;;;;;1.38;1.08;;;;;;;;;;5119012;28;20198;-55
2022/05/07 08:33:40;;;;;;;1.88;1.30;;;;;;;;;;5119583;28;20202;-54
2022/05/07 08:36:08;;;;;;;1.30;1.20;;;;;;;;;;5118985;28;20205;-55
2022/05/07 08:38:38;;;;;;;1.40;1.17;;;;;;;;;;5119663;28;20486;-55
2022/05/07 08:41:05;;;;;;;2.28;1.00;;;;;;;;;;5119058;28;20798;-55
2022/05/07 08:43:36;;;;;;;1.20;1.20;;;;;;;;;;5118296;28;20243;-55
2022/05/07 08:46:10;;;;;;;1.27;1.17;;;;;;;;;;5117580;28;20674;-54
2022/05/07 08:48:38;;;;;;;1.00;1.00;;;;;;;;;;5116924;28;20218;-54
2022/05/07 08:51:06;;;;;;;1.90;1.20;;;;;;;;;;5118464;28;20276;-54
2022/05/07 08:53:33;;;;;;;1.17;1.08;;;;;;;;;;5118788;28;20203;-54
2022/05/07 08:56:02;;;;;;;1.23;1.02;;;;;;;;;;5117017;28;20582;-55
2022/05/07 08:58:30;;;;;;;1.10;1.00;;;;;;;;;;5116834;28;20195;-54
2022/05/07 09:00:59;;;;;;;1.30;1.20;;;;;;;;;;5117575;28;20222;-54
2022/05/07 09:03:27;;;;;;;1.40;1.00;;;;;;;;;;5116567;28;20211;-55
2022/05/07 09:05:54;;;;;;;0.80;0.80;;;;;;;;;;5117908;28;20229;-54
2022/05/07 09:08:27;;;;;;;0.95;0.90;;;;;;;;;;5118323;28;20217;-54
2022/05/07 09:10:55;;;;;;;1.70;1.20;;;;;;;;;;5118479;28;20199;-54
2022/05/07 09:13:24;;;;;;;1.10;0.90;;;;;;;;;;5117875;28;20206;-54
2022/05/07 09:15:52;;;;;;;1.10;1.00;;;;;;;;;;5116981;28;20199;-54
2022/05/07 09:18:20;;;;;;;1.05;1.00;;;;;;;;;;5117782;28;20277;-54
2022/05/07 09:21:15;;;;;;;1.20;1.10;;;;;;;;;;5116962;28;20250;-54
2022/05/07 09:23:43;;;;;;;1.27;1.10;;;;;;;;;;5118029;28;20206;-54
2022/05/07 09:26:10;;;;;;;1.15;1.10;;;;;;;;;;5116703;28;20203;-54
2022/05/07 09:28:39;;;;;;;1.00;1.00;;;;;;;;;;5117101;28;20203;-54
2022/05/07 09:31:08;;;;;;;1.20;1.10;;;;;;;;;;5116934;28;20246;-54
2022/05/07 09:33:36;;;;;;;0.98;0.90;;;;;;;;;;5115824;28;20573;-54
2022/05/07 09:36:10;;;;;;;1.00;1.00;;;;;;;;;;5116194;28;20199;-54
2022/05/07 09:38:38;;;;;;;0.88;0.88;;;;;;;;;;5116831;28;20203;-54
2022/05/07 09:41:06;;;;;;;0.80;0.80;;;;;;;;;;5116824;28;20226;-54
2022/05/07 09:43:34;;;;;;;0.95;0.88;;;;;;;;;;5109216;28;20245;-54
2022/05/07 09:46:03;;;;;;;0.90;0.90;;;;;;;;;;5103750;28;20200;-54
2022/05/07 09:48:31;;;;;;;1.38;1.10;;;;;;;;;;5096120;28;20195;-54
2022/05/07 09:50:59;;;;;;;1.10;1.10;;;;;;;;;;5096053;28;20203;-54
2022/05/07 09:58:56;;;;;;;1.75;1.15;;;;;;;;;;5096144;28;20194;-54
2022/05/07 10:01:28;;;;;;;1.00;1.00;;;;;;;;;;5096122;28;20247;-54
2022/05/07 10:04:04;;;;;;;1.38;1.05;;;;;;;;;;5112195;28;20207;-55
2022/05/07 10:06:36;;;;;;;1.15;1.08;;;;;;;;;;5116570;28;20201;-54
2022/05/07 10:09:11;;;;;;;1.33;1.00;;;;;;;;;;5116879;28;20201;-54
2022/05/07 10:11:39;;;;;;;0.82;0.82;;;;;;;;;;5109848;28;20198;-54
2022/05/07 10:14:10;;;;;;;1.38;1.00;;;;;;;;;;5095463;28;20203;-54
2022/05/07 10:16:39;;;;;;;1.08;1.08;;;;;;;;;;5096274;28;20226;-54
2022/05/07 10:19:12;;;;;;;1.05;0.95;;;;;;;;;;5095663;28;20204;-54
2022/05/07 10:21:40;;;;;;;1.13;1.00;;;;;;;;;;5094473;28;20235;-55
2022/05/07 10:24:08;;;;;;;0.90;0.90;;;;;;;;;;5095962;28;20280;-54
2022/05/07 10:26:40;;;;;;;1.35;0.98;;;;;;;;;;5097012;28;20246;-55
2022/05/07 10:29:07;;;;;;;1.00;1.00;;;;;;;;;;5088224;28;20197;-54
2022/05/07 10:31:45;;;;;;;1.00;0.95;;;;;;;;;;5116238;28;20198;-54
2022/05/07 10:34:13;;;;;;;1.20;1.10;;;;;;;;;;5115371;28;20198;-54
2022/05/07 10:36:41;;;;;;;1.10;1.00;;;;;;;;;;5115947;28;20738;-54
2022/05/07 10:39:09;;;;;;;1.20;1.10;;;;;;;;;;5115962;28;20297;-54
2022/05/07 10:41:47;;;;;;;1.10;1.00;;;;;;;;;;5115026;28;20250;-54
2022/05/07 10:44:19;;;;;;;1.00;1.00;;;;;;;;;;5116339;28;20280;-54
2022/05/07 10:46:47;;;;;;;0.80;0.80;;;;;;;;;;5104330;28;20207;-54
2022/05/07 10:49:18;;;;;;;1.38;1.17;;;;;;;;;;5095497;28;20554;-54
2022/05/07 10:51:51;;;;;;;1.15;0.93;;;;;;;;;;5095394;28;20191;-54
2022/05/07 10:54:21;;;;;;;1.00;1.00;;;;;;;;;;5095094;28;20292;-54
2022/05/07 10:56:50;;;;;;;1.10;1.00;;;;;;;;;;5094876;28;20207;-55
2022/05/07 10:59:17;;;;;;;0.90;0.90;;;;;;;;;;5095370;28;20217;-54
2022/05/07 11:01:44;;;;;;;1.10;1.10;;;;;;;;;;5094551;28;20227;-54
2022/05/07 11:04:17;;;;;;;1.73;1.15;;;;;;;;;;5094431;28;20203;-54
2022/05/07 11:06:48;;;;;;;1.15;1.10;;;;;;;;;;5094294;28;20207;-54
2022/05/07 11:09:16;;;;;;;1.10;0.95;;;;;;;;;;5094603;28;20214;-54
2022/05/07 11:11:45;;;;;;;0.95;0.95;;;;;;;;;;5093694;28;20203;-54
2022/05/07 11:14:22;;;;;;;1.08;1.08;;;;;;;;;;5094336;28;20199;-54
2022/05/07 11:16:50;;;;;;;1.00;0.90;;;;;;;;;;5094459;28;20214;-54
2022/05/07 11:19:26;;;;;;;1.08;1.05;;;;;;;;;;5094398;28;20202;-55
2022/05/07 11:21:54;;;;;;;1.20;1.10;;;;;;;;;;5094443;28;20352;-55
2022/05/07 11:24:21;;;;;;;0.98;0.90;;;;;;;;;;5094331;28;20199;-54
2022/05/07 11:26:52;;;;;;;1.30;1.00;;;;;;;;;;5097695;28;20271;-54
2022/05/07 11:29:19;;;;;;;1.15;1.05;;;;;;;;;;5098336;28;20199;-54
2022/05/07 11:31:55;;;;;;;1.23;1.10;;;;;;;;;;5097848;28;20202;-54
2022/05/07 11:34:31;;;;;;;1.13;1.02;;;;;;;;;;5097285;28;20203;-54
2022/05/07 11:37:10;;;;;;;0.90;0.90;;;;;;;;;;5098879;28;20203;-54
2022/05/07 11:39:47;;;;;;;1.08;0.90;;;;;;;;;;5098507;28;20199;-55
2022/05/07 11:42:26;;;;;;;1.20;1.10;;;;;;;;;;5097836;28;20230;-54
2022/05/07 11:47:39;;;;;;;1.17;1.08;;;;;;;;;;5096373;28;20211;-55
2022/05/07 11:50:09;;;;;;;1.02;1.02;;;;;;;;;;5097103;28;20223;-55
2022/05/07 11:52:36;;;;;;;0.90;0.90;;;;;;;;;;5091716;28;20223;-55
2022/05/07 11:55:07;;;;;;;0.85;0.85;;;;;;;;;;5095238;28;20207;-55
2022/05/07 11:57:36;;;;;;;1.10;1.10;;;;;;;;;;5095233;28;20210;-55
2022/05/07 12:00:16;;;;;;;0.80;0.80;;;;;;;;;;5095710;28;20212;-54
2022/05/07 12:02:54;;;;;;;0.95;0.95;;;;;;;;;;5095964;28;20323;-54
2022/05/07 12:05:23;;;;;;;1.20;1.10;;;;;;;;;;5094157;28;20553;-55
2022/05/07 12:07:51;;;;;;;1.20;1.10;;;;;;;;;;5095289;28;20213;-55
2022/05/07 12:10:20;;;;;;;1.00;1.00;;;;;;;;;;5095142;28;20208;-54
2022/05/07 12:12:48;;;;;;;1.02;1.00;;;;;;;;;;5094243;28;20208;-55
2022/05/07 12:15:16;;;;;;;1.00;1.00;;;;;;;;;;5094971;28;20214;-55
2022/05/07 12:17:55;;;;;;;1.10;1.00;;;;;;;;;;5094702;28;20215;-54
2022/05/07 12:20:25;;;;;;;0.93;0.93;;;;;;;;;;5095942;28;20199;-55
2022/05/07 12:31:09;;;;;;;1.25;1.15;;;;;;;;;;5093711;28;20295;-55
2022/05/07 12:33:37;;;;;;;1.00;1.00;;;;;;;;;;5093014;28;20204;-54
2022/05/07 12:36:06;;;;;;;0.95;0.95;;;;;;;;;;5093441;28;20545;-55
2022/05/07 12:38:34;;;;;;;1.48;1.20;;;;;;;;;;5093318;28;20207;-55
2022/05/07 12:41:01;;;;;;;1.10;1.10;;;;;;;;;;5094138;28;20227;-55
2022/05/07 12:43:29;;;;;;;1.05;1.05;;;;;;;;;;5094089;28;20665;-55
2022/05/07 12:45:56;;;;;;;1.10;0.93;;;;;;;;;;5091255;28;20268;-55
2022/05/07 12:48:23;;;;;;;1.10;1.10;;;;;;;;;;5091460;28;20204;-55
2022/05/07 12:50:51;;;;;;;1.17;1.00;;;;;;;;;;5091971;28;20388;-54
2022/05/07 12:53:20;;;;;;;0.98;0.98;;;;;;;;;;5094988;28;20242;-54
2022/05/07 12:55:48;;;;;;;1.05;0.90;;;;;;;;;;5095181;28;20243;-54
2022/05/07 12:58:15;;;;;;;0.95;0.95;;;;;;;;;;5095175;28;20203;-55
2022/05/07 13:00:43;;;;;;;0.85;0.85;;;;;;;;;;5096091;28;20196;-54
2022/05/07 13:03:11;;;;;;;1.05;1.00;;;;;;;;;;5096631;28;20619;-54
2022/05/07 13:05:39;;;;;;;1.05;1.00;;;;;;;;;;5095754;28;20204;-54
2022/05/07 13:08:07;;;;;;;1.10;1.00;;;;;;;;;;5095914;28;20200;-54
2022/05/07 13:10:35;;;;;;;1.02;1.00;;;;;;;;;;5090943;28;20594;-54
2022/05/07 13:13:04;;;;;;;2.15;1.20;;;;;;;;;;5092337;28;20196;-55
2022/05/07 13:15:32;;;;;;;1.10;1.00;;;;;;;;;;5095579;28;20206;-54
2022/05/07 13:18:00;;;;;;;1.40;0.90;;;;;;;;;;5096125;28;20207;-55
2022/05/07 13:20:28;;;;;;;1.00;0.90;;;;;;;;;;5095520;28;20216;-54
2022/05/07 13:22:56;;;;;;;0.95;0.95;;;;;;;;;;5094879;28;20642;-54
2022/05/07 13:25:23;;;;;;;1.15;1.00;;;;;;;;;;5088853;28;20583;-54
2022/05/07 13:27:52;;;;;;;1.30;1.20;;;;;;;;;;5114700;28;20206;-55
2022/05/07 13:30:20;;;;;;;0.80;0.80;;;;;;;;;;5113929;28;20789;-54
2022/05/07 13:32:48;;;;;;;0.90;0.90;;;;;;;;;;5115361;28;20202;-55
2022/05/07 13:35:15;;;;;;;1.30;1.20;;;;;;;;;;5115274;28;20601;-54
2022/05/07 13:37:43;;;;;;;1.08;1.00;;;;;;;;;;5115515;28;20586;-55
2022/05/07 13:40:11;;;;;;;1.10;1.08;;;;;;;;;;5114765;28;20574;-55
2022/05/07 13:42:38;;;;;;;1.20;1.10;;;;;;;;;;5114816;28;20227;-54
2022/05/07 13:45:11;;;;;;;1.55;0.85;;;;;;;;;;5096527;28;20200;-55
2022/05/07 13:47:39;;;;;;;0.93;0.93;;;;;;;;;;5094903;28;20195;-54
2022/05/07 13:50:08;;;;;;;0.90;0.90;;;;;;;;;;5095150;28;20216;-54
2022/05/07 13:52:36;;;;;;;0.90;0.80;;;;;;;;;;5095005;28;20198;-55
2022/05/07 13:55:03;;;;;;;1.08;1.00;;;;;;;;;;5095449;28;20212;-54
2022/05/07 13:57:31;;;;;;;0.90;0.90;;;;;;;;;;5096055;28;20204;-54
2022/05/07 13:59:59;;;;;;;1.10;1.00;;;;;;;;;;5094537;28;20203;-54
2022/05/07 14:02:28;;;;;;;1.15;1.05;;;;;;;;;;5094688;28;20606;-55
2022/05/07 14:04:56;;;;;;;1.90;1.20;;;;;;;;;;5094706;28;20234;-54
2022/05/07 14:07:23;;;;;;;1.08;1.08;;;;;;;;;;5094431;28;20200;-54
2022/05/07 14:09:51;;;;;;;1.10;1.00;;;;;;;;;;5095122;28;20195;-55
2022/05/07 14:12:18;;;;;;;0.95;0.93;;;;;;;;;;5095078;28;20200;-54
2022/05/07 14:14:46;;;;;;;1.05;0.95;;;;;;;;;;5094495;28;20207;-55
2022/05/07 14:17:13;;;;;;;0.85;0.85;;;;;;;;;;5094133;28;20203;-54
2022/05/07 14:19:42;;;;;;;0.88;0.88;;;;;;;;;;5094107;28;20195;-55
2022/05/07 14:22:10;;;;;;;0.80;0.80;;;;;;;;;;5094729;28;20242;-54
2022/05/07 14:24:38;;;;;;;1.10;1.00;;;;;;;;;;5094590;28;20204;-55
2022/05/07 14:27:06;;;;;;;1.10;1.00;;;;;;;;;;5094559;28;20264;-55
2022/05/07 14:29:34;;;;;;;1.10;1.00;;;;;;;;;;5094302;28;20203;-54
2022/05/07 14:32:04;;;;;;;1.00;1.00;;;;;;;;;;5094855;28;20192;-55
2022/05/07 14:34:31;;;;;;;0.80;0.80;;;;;;;;;;5094329;28;20200;-54
2022/05/07 14:37:00;;;;;;;1.00;1.00;;;;;;;;;;5094591;28;20207;-54
2022/05/07 14:39:27;;;;;;;0.70;0.70;;;;;;;;;;5094048;28;20636;-54
2022/05/07 14:41:55;;;;;;;0.80;0.80;;;;;;;;;;5092480;28;20242;-54
2022/05/07 14:44:23;;;;;;;0.75;0.75;;;;;;;;;;5093651;28;20672;-55
2022/05/07 14:46:50;;;;;;;1.00;0.90;;;;;;;;;;5093805;28;20200;-54
2022/05/07 14:49:18;;;;;;;1.35;1.00;;;;;;;;;;5093956;28;20706;-55
2022/05/07 14:51:46;;;;;;;0.82;0.82;;;;;;;;;;5093822;28;20207;-54
2022/05/07 14:54:16;;;;;;;1.23;1.13;;;;;;;;;;5092307;28;20215;-54
2022/05/07 14:56:45;;;;;;;0.80;0.80;;;;;;;;;;5094340;28;20207;-54
2022/05/07 14:59:12;;;;;;;0.85;0.85;;;;;;;;;;5092621;28;20226;-55
2022/05/07 15:01:40;;;;;;;0.93;0.93;;;;;;;;;;5098818;28;20209;-55
2022/05/07 15:04:08;;;;;;;0.80;0.80;;;;;;;;;;5113771;28;20203;-54
2022/05/07 15:06:35;;;;;;;1.00;1.00;;;;;;;;;;5114320;28;20198;-55
2022/05/07 15:11:48;;;;;;;1.17;1.05;;;;;;;;;;5114326;28;20194;-54
2022/05/07 15:14:17;;;;;;;0.93;0.93;;;;;;;;;;5114178;28;20207;-55
2022/05/07 15:16:44;;;;;;;1.00;0.90;;;;;;;;;;5113511;28;20203;-54
2022/05/07 15:19:12;;;;;;;1.08;1.00;;;;;;;;;;5103107;28;20211;-55
2022/05/07 15:21:39;;;;;;;1.10;1.00;;;;;;;;;;5093192;28;20199;-54
2022/05/07 15:24:08;;;;;;;2.45;1.00;;;;;;;;;;5092519;28;20202;-54
2022/05/07 15:26:36;;;;;;;1.30;0.93;;;;;;;;;;5093313;28;20211;-55
2022/05/07 15:29:04;;;;;;;1.00;0.90;;;;;;;;;;5093087;28;20203;-54
2022/05/07 15:31:33;;;;;;;2.15;1.23;;;;;;;;;;5092995;28;20204;-54